Lohman, Missouri
Current Conditions -  °F | °C
As of 6:16 AM on Friday 24 Oct 2014 (Local Time) from KJEF Reporting Station
Moderate Fog Moderate Fog  
Wind Chill: 46°   Ceiling: 200
Heat Index: 46°   Visibility: 0.25mi
Dew Point: 45°   Wind: 3mph
Humidity: 96%   Direction: 120°ESE
Pressure: 30.1"   Gusts: NA
Location:  38.54°N, 92.36°W
Report Text: KJEF 241116Z 12003KT 1/4SM FG VV002 08/07 A3010 RMK AO2 T00780072
Loading
Personal Weather Stations






























Interactive Weather Map
Tropical Storm Tracking
New forecast layout! Learn more

10-Day Weather Forecast

Advertisements
Track Severe Weather on mobile